createdAt,value
2018-12-03T00:01:33.319Z,21.70
2018-12-03T00:04:21.039Z,21.63
2018-12-03T00:06:49.655Z,25.13
2018-12-03T00:09:18.223Z,24.40
2018-12-03T00:11:46.906Z,23.87
2018-12-03T00:14:15.343Z,22.33
2018-12-03T00:16:44.331Z,21.87
2018-12-03T00:19:12.962Z,23.17
2018-12-03T00:21:42.295Z,22.40
2018-12-03T00:24:10.738Z,22.40
2018-12-03T00:26:39.628Z,21.40
2018-12-03T00:29:08.104Z,21.07
2018-12-03T00:31:36.539Z,22.70
2018-12-03T00:34:05.034Z,22.33
2018-12-03T00:36:33.508Z,22.67
2018-12-03T00:39:02.051Z,22.30
2018-12-03T00:41:30.806Z,24.57
2018-12-03T00:43:59.459Z,21.90
2018-12-03T00:46:27.967Z,22.67
2018-12-03T00:48:56.427Z,23.10
2018-12-03T00:51:24.919Z,22.17
2018-12-03T00:53:53.451Z,21.90
2018-12-03T00:56:21.908Z,21.70
2018-12-03T00:58:50.365Z,20.93
2018-12-03T01:01:18.856Z,20.70
2018-12-03T01:03:47.375Z,20.60
2018-12-03T01:06:15.819Z,22.20
2018-12-03T01:08:44.340Z,22.30
2018-12-03T01:11:12.815Z,21.10
2018-12-03T01:13:41.315Z,21.87
2018-12-03T01:16:09.786Z,19.63
2018-12-03T01:18:38.195Z,20.90
2018-12-03T01:21:06.695Z,21.10
2018-12-03T01:23:35.187Z,21.90
2018-12-03T01:26:03.691Z,21.77
2018-12-03T01:28:32.131Z,23.00
2018-12-03T01:31:00.535Z,22.80
2018-12-03T01:33:29.056Z,22.63
2018-12-03T01:35:58.270Z,23.40
2018-12-03T01:38:26.671Z,23.50
2018-12-03T01:40:55.848Z,22.33
2018-12-03T01:43:24.536Z,21.87
2018-12-03T01:45:53.194Z,22.87
2018-12-03T01:48:21.685Z,23.87
2018-12-03T01:50:50.105Z,23.83
2018-12-03T01:53:19.023Z,24.03
2018-12-03T01:55:47.542Z,23.07
2018-12-03T01:58:16.087Z,24.80
2018-12-03T02:00:44.571Z,23.73
2018-12-03T02:03:13.440Z,24.37
2018-12-03T02:05:42.795Z,24.07
2018-12-03T02:08:11.279Z,25.00
2018-12-03T02:10:40.015Z,23.67
2018-12-03T02:13:08.499Z,25.07
2018-12-03T02:15:36.999Z,26.10
2018-12-03T02:18:06.308Z,26.50
2018-12-03T02:20:34.816Z,26.27
2018-12-03T02:23:03.300Z,25.10
2018-12-03T02:25:31.743Z,26.80
2018-12-03T02:28:00.215Z,26.23
2018-12-03T02:30:28.664Z,27.10
2018-12-03T02:32:57.162Z,26.87
2018-12-03T02:35:25.878Z,27.00
2018-12-03T02:37:54.264Z,27.47
2018-12-03T02:40:22.715Z,25.77
2018-12-03T02:42:51.143Z,25.10
2018-12-03T02:45:19.583Z,26.83
2018-12-03T02:47:48.136Z,25.83
2018-12-03T02:50:16.867Z,26.17
2018-12-03T02:52:45.284Z,25.80
2018-12-03T02:55:14.479Z,25.13
2018-12-03T02:57:43.024Z,25.90
2018-12-03T03:00:13.121Z,24.00
2018-12-03T03:02:42.035Z,24.03
2018-12-03T03:05:11.787Z,23.43
2018-12-03T03:07:40.481Z,23.00
2018-12-03T03:10:11.224Z,24.27
2018-12-03T03:12:39.853Z,23.50
2018-12-03T03:15:11.487Z,21.70
2018-12-03T03:17:40.420Z,22.93
2018-12-03T03:20:11.071Z,24.50
2018-12-03T03:22:39.540Z,24.03
2018-12-03T03:25:09.043Z,24.70
2018-12-03T03:27:38.433Z,23.93
2018-12-03T03:30:10.784Z,25.00
2018-12-03T03:32:39.287Z,26.33
2018-12-03T03:35:09.111Z,24.23
2018-12-03T03:37:37.829Z,25.10
2018-12-03T03:40:12.526Z,24.97
2018-12-03T03:42:41.785Z,26.87
2018-12-03T03:45:16.751Z,25.63
2018-12-03T03:47:46.010Z,27.57
2018-12-03T03:50:14.851Z,26.87
2018-12-03T03:52:43.887Z,26.93
2018-12-03T03:55:12.298Z,27.57
2018-12-03T03:57:40.807Z,25.53
2018-12-03T04:00:10.978Z,26.10
2018-12-03T04:02:40.262Z,25.70
2018-12-03T04:05:10.228Z,26.37
2018-12-03T04:07:38.927Z,24.50
2018-12-03T04:10:09.210Z,23.67
2018-12-03T04:12:37.614Z,23.03
2018-12-03T04:15:08.269Z,24.70
2018-12-03T04:17:37.000Z,26.40
2018-12-03T04:20:09.038Z,25.07
2018-12-03T04:22:37.420Z,26.63
2018-12-03T04:25:07.412Z,29.10
2018-12-03T04:27:36.131Z,28.53
2018-12-03T04:30:07.498Z,28.97
2018-12-03T04:32:35.959Z,27.33
2018-12-03T04:35:04.728Z,27.73
2018-12-03T04:37:33.136Z,27.57
2018-12-03T04:40:01.616Z,25.37
2018-12-03T04:42:30.043Z,25.17
2018-12-03T04:44:58.529Z,26.30
2018-12-03T04:47:26.990Z,26.87
2018-12-03T04:49:55.503Z,25.67
2018-12-03T04:52:24.119Z,25.37
2018-12-03T04:54:52.955Z,25.80
2018-12-03T04:57:22.336Z,26.10
2018-12-03T04:59:50.743Z,26.47
2018-12-03T05:02:19.162Z,26.23
2018-12-03T05:04:47.611Z,27.27
2018-12-03T05:07:16.105Z,25.30
2018-12-03T05:09:44.559Z,25.47
2018-12-03T05:12:13.327Z,25.50
2018-12-03T05:14:41.788Z,25.80
2018-12-03T05:17:11.519Z,26.67
2018-12-03T05:19:40.000Z,25.30
2018-12-03T05:22:08.405Z,26.27
2018-12-03T05:24:36.903Z,25.87
2018-12-03T05:27:06.455Z,26.37
2018-12-03T05:29:34.851Z,27.23
2018-12-03T05:32:03.279Z,26.47
2018-12-03T05:34:31.724Z,23.43
2018-12-03T05:37:00.127Z,24.50
2018-12-03T05:39:28.605Z,25.83
2018-12-03T05:41:57.091Z,25.10
2018-12-03T05:44:26.275Z,23.63
2018-12-03T05:46:55.371Z,23.23
2018-12-03T05:49:23.743Z,21.03
2018-12-03T05:51:52.142Z,21.90
2018-12-03T05:54:20.611Z,21.23
2018-12-03T05:56:49.021Z,22.50
2018-12-03T05:59:17.531Z,22.87
2018-12-03T06:01:45.982Z,23.10
2018-12-03T06:04:14.432Z,24.10
2018-12-03T06:06:42.938Z,25.70
2018-12-03T06:09:11.423Z,24.70
2018-12-03T06:11:39.899Z,25.40
2018-12-03T06:14:09.147Z,24.53
2018-12-03T06:16:37.619Z,25.13
2018-12-03T06:19:06.589Z,24.80
2018-12-03T06:21:35.199Z,24.30
2018-12-03T06:24:03.617Z,24.73
2018-12-03T06:26:31.979Z,23.90
2018-12-03T06:29:00.403Z,24.40
2018-12-03T06:31:28.818Z,23.93
2018-12-03T06:33:57.526Z,24.10
2018-12-03T06:36:25.916Z,23.73
2018-12-03T06:38:54.437Z,23.33
2018-12-03T06:41:22.851Z,23.57
2018-12-03T06:43:51.445Z,23.57
2018-12-03T06:46:19.831Z,23.90
2018-12-03T06:48:48.495Z,22.97
2018-12-03T06:51:17.042Z,24.73
2018-12-03T06:53:45.699Z,23.20
2018-12-03T06:56:14.374Z,23.70
2018-12-03T06:58:42.779Z,23.27
2018-12-03T07:01:11.236Z,22.57
2018-12-03T07:03:39.663Z,24.23
2018-12-03T07:06:08.118Z,23.20
2018-12-03T07:08:36.620Z,21.97
2018-12-03T07:11:05.586Z,23.30
2018-12-03T07:13:34.078Z,21.50
2018-12-03T07:16:02.617Z,20.90
2018-12-03T07:18:31.429Z,21.23
2018-12-03T07:20:59.843Z,20.90
2018-12-03T07:23:28.776Z,21.23
2018-12-03T07:25:57.311Z,21.53
2018-12-03T07:28:25.867Z,24.37
2018-12-03T07:30:54.515Z,22.03
2018-12-03T07:33:23.080Z,20.97
2018-12-03T07:35:52.191Z,20.27
2018-12-03T07:38:20.695Z,19.40
2018-12-03T07:40:49.396Z,20.30
2018-12-03T07:43:18.505Z,20.07
2018-12-03T07:45:47.015Z,19.40
2018-12-03T07:48:15.507Z,19.90
2018-12-03T07:50:44.023Z,19.60
2018-12-03T07:53:12.503Z,21.17
2018-12-03T07:55:40.982Z,19.67
2018-12-03T07:58:12.747Z,19.33
2018-12-03T08:00:46.128Z,20.80
2018-12-03T08:03:14.871Z,19.57
2018-12-03T08:05:43.783Z,19.93
2018-12-03T08:08:12.303Z,19.30
2018-12-03T08:10:42.392Z,21.63
2018-12-03T08:13:12.432Z,19.63
2018-12-03T08:15:40.886Z,21.47
2018-12-03T08:18:12.345Z,20.10
2018-12-03T08:21:11.783Z,19.20
2018-12-03T08:23:54.061Z,18.50
2018-12-03T08:26:22.511Z,17.70
2018-12-03T08:28:51.056Z,20.33
2018-12-03T08:31:19.485Z,19.00
2018-12-03T08:33:48.549Z,18.30
2018-12-03T08:36:17.114Z,19.40
2018-12-03T08:38:45.670Z,18.83
2018-12-03T08:41:14.714Z,18.47
2018-12-03T08:43:43.170Z,20.00
2018-12-03T08:46:12.289Z,17.90
2018-12-03T08:48:42.126Z,17.90
2018-12-03T08:51:11.655Z,17.37
2018-12-03T08:53:40.187Z,18.97
2018-12-03T08:56:08.631Z,18.30
2018-12-03T08:58:37.053Z,18.00
2018-12-03T09:01:11.804Z,17.63
2018-12-03T09:03:41.244Z,18.60
2018-12-03T09:06:12.073Z,17.90
2018-12-03T09:08:40.671Z,17.80
2018-12-03T09:11:11.571Z,20.50
2018-12-03T09:13:40.336Z,18.63
2018-12-03T09:16:08.743Z,16.13
2018-12-03T09:18:39.603Z,18.30
2018-12-03T09:21:14.156Z,17.67
2018-12-03T09:23:43.931Z,17.30
2018-12-03T09:26:13.040Z,17.77
2018-12-03T09:28:41.568Z,18.47
2018-12-03T09:31:10.127Z,18.03
2018-12-03T09:33:38.570Z,18.23
2018-12-03T09:36:07.347Z,17.13
2018-12-03T09:38:47.259Z,17.67
2018-12-03T09:41:15.856Z,17.17
2018-12-03T09:43:44.414Z,18.27
2018-12-03T09:46:12.921Z,18.23
2018-12-03T09:48:42.221Z,18.13
2018-12-03T09:51:10.808Z,18.87
2018-12-03T09:53:39.307Z,18.50
2018-12-03T09:56:07.731Z,19.13
2018-12-03T09:58:37.123Z,18.70
2018-12-03T10:01:10.571Z,18.40
2018-12-03T10:03:44.409Z,19.13
2018-12-03T10:06:15.605Z,19.13
2018-12-03T10:08:44.236Z,17.33
2018-12-03T10:11:12.743Z,19.30
2018-12-03T10:13:41.194Z,19.33
2018-12-03T10:16:09.999Z,20.53
2018-12-03T10:18:38.524Z,18.10
2018-12-03T10:21:07.026Z,18.27
2018-12-03T10:23:35.423Z,18.23
2018-12-03T10:26:08.074Z,18.60
2018-12-03T10:28:36.490Z,19.70
2018-12-03T10:31:05.233Z,19.60
2018-12-03T10:33:34.205Z,18.70
2018-12-03T10:36:05.169Z,19.60
2018-12-03T10:38:36.535Z,19.23
2018-12-03T10:41:09.899Z,19.13
2018-12-03T10:43:39.337Z,19.97
2018-12-03T10:46:09.203Z,18.97
2018-12-03T10:48:37.710Z,18.23
2018-12-03T10:51:11.015Z,18.83
2018-12-03T10:53:39.657Z,17.83
2018-12-03T10:56:08.196Z,17.53
2018-12-03T10:58:38.091Z,18.77
2018-12-03T11:01:13.663Z,18.07
2018-12-03T11:03:47.772Z,20.20
2018-12-03T11:06:17.953Z,18.53
2018-12-03T11:08:46.869Z,16.33
2018-12-03T11:11:15.690Z,17.73
2018-12-03T11:13:44.251Z,18.40
2018-12-03T11:16:28.723Z,17.67
2018-12-03T11:18:57.501Z,18.90
2018-12-03T11:21:26.960Z,18.50
2018-12-03T11:23:55.493Z,19.00
2018-12-03T11:26:30.181Z,17.77
2018-12-03T11:28:58.864Z,18.77
2018-12-03T11:31:30.033Z,19.53
2018-12-03T11:33:59.457Z,18.33
2018-12-03T11:36:39.187Z,17.00
2018-12-03T11:39:15.103Z,18.70
2018-12-03T11:41:43.579Z,18.30
2018-12-03T11:44:12.251Z,19.30
2018-12-03T11:46:40.793Z,17.60
2018-12-03T11:49:09.355Z,17.80
2018-12-03T11:51:37.841Z,17.70
2018-12-03T11:54:07.792Z,18.30
2018-12-03T11:56:36.272Z,18.13
2018-12-03T11:59:04.667Z,18.00
2018-12-03T12:01:33.078Z,19.00
2018-12-03T12:04:01.615Z,17.33
2018-12-03T12:06:30.096Z,20.70
2018-12-03T12:08:58.499Z,18.00
2018-12-03T12:11:27.047Z,17.60
2018-12-03T12:13:56.258Z,17.50
2018-12-03T12:16:24.711Z,18.13
2018-12-03T12:18:53.403Z,18.53
2018-12-03T12:21:21.907Z,19.50
2018-12-03T12:23:50.389Z,19.43
2018-12-03T12:26:18.791Z,17.50
2018-12-03T12:28:47.233Z,18.30
2018-12-03T12:31:15.915Z,18.50
2018-12-03T12:33:44.421Z,18.90
2018-12-03T12:36:12.978Z,18.10
2018-12-03T12:38:41.460Z,17.03
2018-12-03T12:41:09.911Z,18.53
2018-12-03T12:43:38.449Z,19.03
2018-12-03T12:46:10.163Z,19.73
2018-12-03T12:48:38.688Z,19.57
2018-12-03T12:51:07.213Z,20.90
2018-12-03T12:53:35.736Z,19.57
2018-12-03T12:56:04.329Z,19.23
2018-12-03T12:58:33.259Z,18.70
2018-12-03T13:01:01.671Z,18.60
2018-12-03T13:03:30.189Z,18.60
2018-12-03T13:05:58.652Z,20.60
2018-12-03T13:08:27.127Z,19.10
2018-12-03T13:10:55.596Z,19.30
2018-12-03T13:13:24.018Z,20.03
2018-12-03T13:15:52.475Z,20.37
2018-12-03T13:18:20.938Z,20.47
2018-12-03T13:20:49.888Z,19.80
2018-12-03T13:23:18.551Z,19.13
2018-12-03T13:25:47.087Z,19.60
2018-12-03T13:28:16.032Z,20.17
2018-12-03T13:30:44.473Z,19.80
2018-12-03T13:33:13.610Z,18.73
2018-12-03T13:35:42.216Z,18.90
2018-12-03T13:38:10.885Z,19.43
2018-12-03T13:40:40.067Z,19.17
2018-12-03T13:43:08.664Z,19.80
2018-12-03T13:45:37.888Z,20.23
2018-12-03T13:48:06.839Z,19.77
2018-12-03T13:50:35.263Z,21.03
2018-12-03T13:53:03.731Z,18.70
2018-12-03T13:55:32.302Z,20.63
2018-12-03T13:58:01.163Z,20.17
2018-12-03T14:00:29.983Z,19.57
2018-12-03T14:03:04.194Z,19.50
2018-12-03T14:05:35.671Z,19.70
2018-12-03T14:08:26.567Z,21.20
2018-12-03T14:11:08.299Z,19.97
2018-12-03T14:14:52.269Z,19.00
2018-12-03T14:17:29.642Z,20.37
2018-12-03T14:20:00.251Z,18.80
2018-12-03T14:22:33.787Z,20.30
2018-12-03T14:25:02.350Z,20.03
2018-12-03T14:27:30.747Z,21.30
2018-12-03T14:29:59.224Z,21.90
2018-12-03T14:32:27.995Z,19.97
2018-12-03T14:34:57.576Z,18.90
2018-12-03T14:37:26.127Z,20.03
2018-12-03T14:39:54.672Z,20.70
2018-12-03T14:42:23.523Z,19.73
2018-12-03T14:44:52.151Z,21.80
2018-12-03T14:47:20.643Z,23.57
2018-12-03T14:49:49.725Z,20.37
2018-12-03T14:52:18.575Z,21.13
2018-12-03T14:54:47.114Z,20.80
2018-12-03T14:57:16.417Z,21.27
2018-12-03T14:59:44.965Z,21.90
2018-12-03T15:02:13.496Z,21.67
2018-12-03T15:04:42.965Z,23.60
2018-12-03T15:07:11.605Z,22.20
2018-12-03T15:09:40.293Z,24.13
2018-12-03T15:12:08.759Z,22.13
2018-12-03T15:14:38.096Z,22.90
2018-12-03T15:17:06.595Z,22.87
2018-12-03T15:19:35.127Z,21.37
2018-12-03T15:22:03.634Z,22.10
2018-12-03T15:24:34.035Z,22.10
2018-12-03T15:27:02.499Z,22.73
2018-12-03T15:29:31.000Z,21.80
2018-12-03T15:32:00.256Z,24.37
2018-12-03T15:34:28.736Z,22.10
2018-12-03T15:36:57.462Z,23.37
2018-12-03T15:39:26.390Z,23.13
2018-12-03T15:41:54.994Z,21.93
2018-12-03T15:44:24.269Z,22.90
2018-12-03T15:46:52.779Z,21.73
2018-12-03T15:49:21.327Z,23.00
2018-12-03T15:51:49.952Z,22.80
2018-12-03T15:54:18.451Z,22.33
2018-12-03T15:56:46.995Z,23.63
2018-12-03T15:59:15.469Z,22.13
2018-12-03T16:01:43.928Z,21.60
2018-12-03T16:04:12.379Z,20.93
2018-12-03T16:06:41.323Z,22.63
2018-12-03T16:09:11.618Z,21.50
2018-12-03T16:11:40.517Z,23.03
2018-12-03T16:14:09.041Z,21.40
2018-12-03T16:16:37.560Z,22.90
2018-12-03T16:19:06.085Z,21.87
2018-12-03T16:21:34.523Z,23.53
2018-12-03T16:24:02.991Z,22.60
2018-12-03T16:26:32.271Z,20.97
2018-12-03T16:29:02.026Z,21.73
2018-12-03T16:31:30.523Z,22.37
2018-12-03T16:33:59.850Z,20.40
2018-12-03T16:36:28.303Z,20.90
2018-12-03T16:38:56.789Z,20.77
2018-12-03T16:41:25.975Z,20.03
2018-12-03T16:43:54.359Z,20.20
2018-12-03T16:46:23.382Z,23.23
2018-12-03T16:48:52.049Z,21.80
2018-12-03T16:51:20.505Z,20.90
2018-12-03T16:53:49.111Z,21.57
2018-12-03T16:56:17.599Z,21.00
2018-12-03T16:58:46.488Z,22.70
2018-12-03T17:01:14.987Z,22.13
2018-12-03T17:03:43.528Z,20.50
2018-12-03T17:06:11.954Z,19.90
2018-12-03T17:08:40.387Z,21.17
2018-12-03T17:11:09.153Z,21.07
2018-12-03T17:13:37.683Z,19.20
2018-12-03T17:16:06.174Z,19.23
2018-12-03T17:18:34.668Z,19.70
2018-12-03T17:21:09.296Z,20.60
2018-12-03T17:24:16.201Z,20.90
2018-12-03T17:26:45.049Z,21.40
2018-12-03T17:29:13.649Z,19.40
2018-12-03T17:31:42.092Z,20.57
2018-12-03T17:34:10.575Z,19.90
2018-12-03T17:36:39.182Z,21.27
2018-12-03T17:39:08.687Z,19.53
2018-12-03T17:41:37.189Z,20.67
2018-12-03T17:44:06.802Z,21.37
2018-12-03T17:46:35.406Z,20.83
2018-12-03T17:49:03.813Z,20.90
2018-12-03T19:04:54.521Z,17.13
2018-12-03T19:07:22.732Z,17.50
2018-12-03T19:09:51.000Z,16.63
2018-12-03T19:12:19.309Z,16.60
2018-12-03T19:14:47.598Z,17.43
2018-12-03T19:17:15.817Z,16.40
2018-12-03T19:19:43.996Z,17.20
2018-12-03T19:22:12.301Z,17.17
2018-12-03T19:24:40.553Z,16.97
2018-12-03T19:27:08.869Z,17.20
2018-12-03T19:29:38.948Z,18.00
2018-12-03T19:46:28.263Z,16.53
2018-12-03T19:48:56.469Z,17.70
2018-12-03T19:51:24.721Z,17.27
2018-12-03T19:53:54.344Z,17.47
2018-12-03T19:56:22.649Z,18.20
2018-12-03T19:58:52.524Z,16.90
2018-12-03T20:01:20.941Z,16.50
2018-12-03T20:03:49.112Z,16.90
2018-12-03T20:06:17.389Z,17.70
2018-12-03T20:08:45.628Z,17.03
2018-12-03T20:11:13.908Z,17.60
2018-12-03T20:13:42.217Z,16.23
2018-12-03T20:16:10.877Z,16.30
2018-12-03T20:18:39.589Z,17.33
2018-12-03T20:21:11.717Z,16.17
2018-12-03T20:23:46.068Z,15.13
2018-12-03T20:26:24.668Z,16.13
2018-12-03T20:29:35.189Z,15.20
2018-12-03T20:33:17.880Z,15.03
2018-12-03T20:35:53.737Z,15.20
2018-12-03T20:39:02.544Z,15.03
2018-12-03T20:41:34.857Z,13.93
2018-12-03T20:44:11.543Z,14.90
2018-12-03T20:46:47.957Z,14.40
2018-12-03T20:49:57.584Z,16.23
2018-12-03T20:52:28.565Z,14.77
2018-12-03T20:54:59.977Z,14.33
2018-12-03T20:57:28.298Z,14.57
2018-12-03T20:59:56.574Z,15.60
2018-12-03T21:02:25.862Z,15.43
2018-12-03T21:04:54.097Z,15.60
2018-12-03T21:07:22.402Z,16.40
2018-12-03T21:09:50.710Z,16.13
2018-12-03T21:12:18.896Z,15.80
2018-12-03T21:14:47.437Z,15.33
2018-12-03T21:17:15.969Z,14.87
2018-12-03T21:19:46.108Z,15.30
2018-12-03T21:22:14.316Z,15.13
2018-12-03T21:24:42.591Z,15.90
2018-12-03T21:27:11.101Z,14.73
2018-12-03T21:29:39.352Z,15.20
2018-12-03T21:32:07.549Z,14.40
2018-12-03T21:34:35.828Z,14.77
2018-12-03T21:37:04.132Z,15.60
2018-12-03T21:39:32.317Z,14.17
2018-12-03T21:42:00.511Z,15.83
2018-12-03T21:44:28.784Z,14.07
2018-12-03T21:46:57.000Z,14.50
2018-12-03T21:49:25.296Z,13.80
2018-12-03T21:51:53.594Z,14.00
2018-12-03T21:54:21.777Z,13.77
2018-12-03T21:56:49.988Z,13.93
2018-12-03T21:59:18.541Z,13.67
2018-12-03T22:01:46.729Z,13.83
2018-12-03T22:04:14.955Z,14.00
2018-12-03T22:06:43.145Z,12.73
2018-12-03T22:09:11.401Z,14.03
2018-12-03T22:11:39.650Z,13.90
2018-12-03T22:14:07.956Z,13.80
2018-12-03T22:16:36.513Z,13.73
2018-12-03T22:19:04.781Z,13.73
2018-12-03T22:21:33.089Z,14.63
2018-12-03T22:24:01.353Z,14.20
2018-12-03T22:26:29.653Z,14.57
2018-12-03T22:28:57.945Z,14.40
2018-12-03T22:31:26.184Z,13.90
2018-12-03T22:33:54.373Z,15.43
2018-12-03T22:36:22.761Z,14.13
2018-12-03T22:38:50.969Z,14.20
2018-12-03T22:41:19.186Z,14.47
2018-12-03T22:43:47.592Z,14.17
2018-12-03T22:46:15.761Z,15.60
2018-12-03T22:48:44.105Z,15.00
2018-12-03T22:51:12.416Z,14.53
2018-12-03T22:53:40.744Z,14.87
2018-12-03T22:56:09.088Z,15.20
2018-12-03T22:58:37.352Z,14.43
2018-12-03T23:01:08.025Z,14.20
2018-12-03T23:03:36.253Z,14.23
2018-12-03T23:06:04.476Z,15.23
2018-12-03T23:08:32.921Z,14.07
2018-12-03T23:11:01.165Z,15.30
2018-12-03T23:13:30.317Z,14.70
2018-12-03T23:15:58.580Z,14.63
2018-12-03T23:18:26.765Z,15.27
2018-12-03T23:20:54.992Z,14.60
2018-12-03T23:23:23.308Z,14.87
2018-12-03T23:25:53.278Z,14.67
2018-12-03T23:28:21.496Z,14.93
2018-12-03T23:30:49.724Z,15.10
2018-12-03T23:33:17.932Z,14.27
2018-12-03T23:35:46.125Z,15.20
2018-12-03T23:38:14.335Z,14.10
2018-12-03T23:40:42.554Z,13.97
2018-12-03T23:43:10.861Z,14.50
2018-12-03T23:45:39.121Z,15.80
2018-12-03T23:48:07.692Z,15.23
2018-12-03T23:50:35.953Z,14.37
2018-12-03T23:53:04.272Z,14.03
2018-12-03T23:55:32.512Z,15.10
2018-12-03T23:58:00.688Z,14.40
